Linda — OJML — position and weather

sailwx.info

Track history (hours):
 
Tides and Currents Weather Stations Pressure Air Temp Water Temp Dewpoint Dewpoint Depression Visibility Wind Speed Wind Dir Waves Ship Positions

Linda

Last reported at 2014-Aug-26 11:29 UTC. Time now 2014-Aug-27 19:12 UTC.
Position N 59°59' E 026°46'.

Length 141 m; draft 7.3 m.

Type: Ship (hazmat cat A). MMSI: 230984000.

Date/timePositionNaut miles runAvg speedWind from/ knotsBaromVisibWave heightAir tempDewpointWater temp
2014-Aug-26 11:29N 59°59' E 026°46'4613.9
2014-Aug-26 08:11N 59°60' E 025°14'1013.4
2014-Aug-26 07:24N 60°10' E 025°13'2 0.7
2014-Aug-26 04:03N 60°13' E 025°12'712.1
2014-Aug-26 03:28N 60°06' E 025°11'2017.1
2014-Aug-26 02:19N 59°48' E 024°52'1418.0
2014-Aug-26 01:34N 59°43' E 024°27'376 8.3
2014-Aug-24 04:28N 55°39' E 015°32'1415.1
2014-Aug-24 03:31N 55°32' E 015°11'1515.1
2014-Aug-24 02:31N 55°25' E 014°46'1414.8
2014-Aug-24 01:34N 55°15' E 014°28'6014.9
2014-Aug-23 21:34N 55°17' E 012°44'1212.2
2014-Aug-23 20:33N 55°29' E 012°41'10 9.8
2014-Aug-23 19:34N 55°39' E 012°41'17410.0
2014-Aug-23 02:15N 56°36' E 007°47'18517.1
2014-Aug-22 15:29N 53°59' E 004°57'1616.9
2014-Aug-22 14:33N 53°43' E 004°52'1817.3
2014-Aug-22 13:32N 53°26' E 004°43'1918.3
2014-Aug-22 12:28N 53°09' E 004°30'1617.4
2014-Aug-22 11:33N 52°55' E 004°17'1717.2
2014-Aug-22 10:33N 52°41' E 004°00'1716.9
2014-Aug-22 09:32N 52°28' E 003°41'5114.7
2014-Aug-22 06:04N 51°39' E 003°20'714.2
2014-Aug-22 05:34N 51°32' E 003°25'1010.5
2014-Aug-22 04:33N 51°27' E 003°39'9 9.2
2014-Aug-22 03:33N 51°20' E 003°49'4 4.2
2014-Aug-22 02:33N 51°15' E 003°50'6 6.0
2014-Aug-22 01:33N 51°10' E 003°47'0 0.0
2014-Aug-22 00:33N 51°10' E 003°47'0 0.0
2014-Aug-21 23:18N 51°10' E 003°47'0 0.0
2014-Aug-21 22:30N 51°10' E 003°47'0 0.0
2014-Aug-21 21:27N 51°10' E 003°47'0 0.0
2014-Aug-21 20:33N 51°10' E 003°47'0 0.0
2014-Aug-21 19:33N 51°10' E 003°47'0 0.0
2014-Aug-21 18:33N 51°10' E 003°47'0 0.0
2014-Aug-21 17:21N 51°10' E 003°47'0 0.0
2014-Aug-21 16:33N 51°10' E 003°47'0 0.0
2014-Aug-21 15:33N 51°10' E 003°47'0 0.0
2014-Aug-21 14:33N 51°10' E 003°47'0 0.0
2014-Aug-21 13:33N 51°10' E 003°47'0 0.0
2014-Aug-21 12:33N 51°10' E 003°47'0 0.0
2014-Aug-21 11:33N 51°10' E 003°47'0 0.0
2014-Aug-21 10:33N 51°10' E 003°47'0 0.0
2014-Aug-21 09:27N 51°10' E 003°47'3 3.6
2014-Aug-21 08:33N 51°13' E 003°48'7 7.0
2014-Aug-21 07:34N 51°20' E 003°49'0 0.4
2014-Aug-21 06:34N 51°20' E 003°49'6 5.7
2014-Aug-21 05:33N 51°24' E 003°42'1413.5
2014-Aug-21 04:33N 51°24' E 003°21'1616.0
2014-Aug-21 03:33N 51°22' E 002°55'1414.4
2014-Aug-21 02:34N 51°22' E 002°32'1515.4
2014-Aug-21 01:33N 51°20' E 002°08'1717.3
2014-Aug-21 00:33N 51°29' E 001°44'1212.5
2014-Aug-20 23:34N 51°28' E 001°24'1818.4
2014-Aug-20 22:33N 51°29' E 000°54'7 6.4
2014-Aug-20 21:32N 51°26' E 000°44'0 0.0
2014-Aug-20 20:32N 51°26' E 000°44'0 0.0
2014-Aug-20 19:32N 51°26' E 000°44'0 0.0
2014-Aug-20 18:32N 51°26' E 000°44'0 0.0
2014-Aug-20 17:32N 51°26' E 000°44'0 0.0
2014-Aug-20 16:32N 51°26' E 000°44'0 0.0
2014-Aug-20 15:32N 51°26' E 000°44'0 0.0
2014-Aug-20 14:32N 51°26' E 000°44'0 0.0
2014-Aug-20 13:32N 51°26' E 000°44'0 0.0
2014-Aug-20 12:32N 51°26' E 000°44'3 3.4
2014-Aug-20 11:33N 51°28' E 000°49'1615.5
2014-Aug-20 10:33N 51°29' E 001°14'1212.3
2014-Aug-20 09:34N 51°28' E 001°34'1110.9
2014-Aug-20 08:34N 51°37' E 001°44'1414.0
2014-Aug-20 07:33N 51°51' E 001°44'1515.2
2014-Aug-20 06:34N 52°06' E 001°48'1615.6
2014-Aug-20 05:34N 52°21' E 001°52'1716.7
2014-Aug-20 04:33N 52°38' E 001°55'1616.3
2014-Aug-20 03:33N 52°52' E 001°42'1918.8
2014-Aug-20 02:34N 53°08' E 001°24'4318.7
2014-Aug-20 00:14N 53°45' E 000°45'1218.5
2014-Aug-19 23:34N 53°53' E 000°31'1818.4
2014-Aug-19 22:34N 54°07' E 000°09'1818.2
2014-Aug-19 21:34N 54°20' W 000°13'1918.0
2014-Aug-19 20:32N 54°33' W 000°35'1717.7
2014-Aug-19 19:33N 54°39' W 001°03'5 0.5
2014-Aug-19 10:31N 54°36' W 001°09'0 0.0
2014-Aug-19 09:31N 54°36' W 001°09'0 0.2
2014-Aug-19 08:32N 54°36' W 001°09'9 8.9
2014-Aug-19 07:33N 54°41' W 000°57'1815.8
2014-Aug-19 06:25N 54°46' W 000°27'1415.9
2014-Aug-19 05:34N 54°51' W 000°05'37614.8
2014-Aug-18 04:11N 57°40' E 009°60'1015.8
2014-Aug-18 03:33N 57°44' E 010°18'1615.6
2014-Aug-18 02:33N 57°47' E 010°46'1716.8
2014-Aug-18 01:33N 57°36' E 011°10'1716.5
2014-Aug-18 00:33N 57°23' E 011°29'10216.9
2014-Aug-17 18:33N 55°51' E 012°45'1514.9
2014-Aug-17 17:33N 55°36' E 012°42'1414.4
2014-Aug-17 16:33N 55°21' E 012°40'1413.6
2014-Aug-17 15:33N 55°16' E 013°02'1514.7
2014-Aug-17 14:33N 55°15' E 013°28'  
Track history (hours):
 
Tides and Currents Weather Stations Pressure Air Temp Water Temp Dewpoint Dewpoint Depression Visibility Wind Speed Wind Dir Waves Ship Positions

Linda

Last reported at 2014-Aug-26 11:29 UTC. Time now 2014-Aug-27 19:12 UTC.
Position N 59°59' E 026°46'.

Length 141 m; draft 7.3 m.

Type: Ship (hazmat cat A). MMSI: 230984000.

Date/timePositionNaut miles runAvg speedWind from/ knotsBaromVisibWave heightAir tempDewpointWater temp
2014-Aug-26 11:29N 59°59' E 026°46'4613.9
2014-Aug-26 08:11N 59°60' E 025°14'1013.4
2014-Aug-26 07:24N 60°10' E 025°13'2 0.7
2014-Aug-26 04:03N 60°13' E 025°12'712.1
2014-Aug-26 03:28N 60°06' E 025°11'2017.1
2014-Aug-26 02:19N 59°48' E 024°52'1418.0
2014-Aug-26 01:34N 59°43' E 024°27'376 8.3
2014-Aug-24 04:28N 55°39' E 015°32'1415.1
2014-Aug-24 03:31N 55°32' E 015°11'1515.1
2014-Aug-24 02:31N 55°25' E 014°46'1414.8
2014-Aug-24 01:34N 55°15' E 014°28'6014.9
2014-Aug-23 21:34N 55°17' E 012°44'1212.2
2014-Aug-23 20:33N 55°29' E 012°41'10 9.8
2014-Aug-23 19:34N 55°39' E 012°41'17410.0
2014-Aug-23 02:15N 56°36' E 007°47'18517.1
2014-Aug-22 15:29N 53°59' E 004°57'1616.9
2014-Aug-22 14:33N 53°43' E 004°52'1817.3
2014-Aug-22 13:32N 53°26' E 004°43'1918.3
2014-Aug-22 12:28N 53°09' E 004°30'1617.4
2014-Aug-22 11:33N 52°55' E 004°17'1717.2
2014-Aug-22 10:33N 52°41' E 004°00'1716.9
2014-Aug-22 09:32N 52°28' E 003°41'5114.7
2014-Aug-22 06:04N 51°39' E 003°20'714.2
2014-Aug-22 05:34N 51°32' E 003°25'1010.5
2014-Aug-22 04:33N 51°27' E 003°39'9 9.2
2014-Aug-22 03:33N 51°20' E 003°49'4 4.2
2014-Aug-22 02:33N 51°15' E 003°50'6 6.0
2014-Aug-22 01:33N 51°10' E 003°47'0 0.0
2014-Aug-22 00:33N 51°10' E 003°47'0 0.0
2014-Aug-21 23:18N 51°10' E 003°47'0 0.0
2014-Aug-21 22:30N 51°10' E 003°47'0 0.0
2014-Aug-21 21:27N 51°10' E 003°47'0 0.0
2014-Aug-21 20:33N 51°10' E 003°47'0 0.0
2014-Aug-21 19:33N 51°10' E 003°47'0 0.0
2014-Aug-21 18:33N 51°10' E 003°47'0 0.0
2014-Aug-21 17:21N 51°10' E 003°47'0 0.0
2014-Aug-21 16:33N 51°10' E 003°47'0 0.0
2014-Aug-21 15:33N 51°10' E 003°47'0 0.0
2014-Aug-21 14:33N 51°10' E 003°47'0 0.0
2014-Aug-21 13:33N 51°10' E 003°47'0 0.0
2014-Aug-21 12:33N 51°10' E 003°47'0 0.0
2014-Aug-21 11:33N 51°10' E 003°47'0 0.0
2014-Aug-21 10:33N 51°10' E 003°47'0 0.0
2014-Aug-21 09:27N 51°10' E 003°47'3 3.6
2014-Aug-21 08:33N 51°13' E 003°48'7 7.0
2014-Aug-21 07:34N 51°20' E 003°49'0 0.4
2014-Aug-21 06:34N 51°20' E 003°49'6 5.7
2014-Aug-21 05:33N 51°24' E 003°42'1413.5
2014-Aug-21 04:33N 51°24' E 003°21'1616.0
2014-Aug-21 03:33N 51°22' E 002°55'1414.4
2014-Aug-21 02:34N 51°22' E 002°32'1515.4
2014-Aug-21 01:33N 51°20' E 002°08'1717.3
2014-Aug-21 00:33N 51°29' E 001°44'1212.5
2014-Aug-20 23:34N 51°28' E 001°24'1818.4
2014-Aug-20 22:33N 51°29' E 000°54'7 6.4
2014-Aug-20 21:32N 51°26' E 000°44'0 0.0
2014-Aug-20 20:32N 51°26' E 000°44'0 0.0
2014-Aug-20 19:32N 51°26' E 000°44'0 0.0
2014-Aug-20 18:32N 51°26' E 000°44'0 0.0
2014-Aug-20 17:32N 51°26' E 000°44'0 0.0
2014-Aug-20 16:32N 51°26' E 000°44'0 0.0
2014-Aug-20 15:32N 51°26' E 000°44'0 0.0
2014-Aug-20 14:32N 51°26' E 000°44'0 0.0
2014-Aug-20 13:32N 51°26' E 000°44'0 0.0
2014-Aug-20 12:32N 51°26' E 000°44'3 3.4
2014-Aug-20 11:33N 51°28' E 000°49'1615.5
2014-Aug-20 10:33N 51°29' E 001°14'1212.3
2014-Aug-20 09:34N 51°28' E 001°34'1110.9
2014-Aug-20 08:34N 51°37' E 001°44'1414.0
2014-Aug-20 07:33N 51°51' E 001°44'1515.2
2014-Aug-20 06:34N 52°06' E 001°48'1615.6
2014-Aug-20 05:34N 52°21' E 001°52'1716.7
2014-Aug-20 04:33N 52°38' E 001°55'1616.3
2014-Aug-20 03:33N 52°52' E 001°42'1918.8
2014-Aug-20 02:34N 53°08' E 001°24'4318.7
2014-Aug-20 00:14N 53°45' E 000°45'1218.5
2014-Aug-19 23:34N 53°53' E 000°31'1818.4
2014-Aug-19 22:34N 54°07' E 000°09'1818.2
2014-Aug-19 21:34N 54°20' W 000°13'1918.0
2014-Aug-19 20:32N 54°33' W 000°35'1717.7
2014-Aug-19 19:33N 54°39' W 001°03'5 0.5
2014-Aug-19 10:31N 54°36' W 001°09'0 0.0
2014-Aug-19 09:31N 54°36' W 001°09'0 0.2
2014-Aug-19 08:32N 54°36' W 001°09'9 8.9
2014-Aug-19 07:33N 54°41' W 000°57'1815.8
2014-Aug-19 06:25N 54°46' W 000°27'1415.9
2014-Aug-19 05:34N 54°51' W 000°05'37614.8
2014-Aug-18 04:11N 57°40' E 009°60'1015.8
2014-Aug-18 03:33N 57°44' E 010°18'1615.6
2014-Aug-18 02:33N 57°47' E 010°46'1716.8
2014-Aug-18 01:33N 57°36' E 011°10'1716.5
2014-Aug-18 00:33N 57°23' E 011°29'10216.9
2014-Aug-17 18:33N 55°51' E 012°45'1514.9
2014-Aug-17 17:33N 55°36' E 012°42'1414.4
2014-Aug-17 16:33N 55°21' E 012°40'1413.6
2014-Aug-17 15:33N 55°16' E 013°02'1514.7
2014-Aug-17 14:33N 55°15' E 013°28'  

Dump ship's entire track history